KOLF/OLF METAR and TAF weather

Enter ICAO airport designator
Station Type Date Time Source
KOLF METAR 2019/08/24 17:53 UTC NOAA

KOLF 241753Z AUTO 25010KT 10SM CLR 28/16 A2976 RMK AO2 SLP066 T02830161 10283 20167 56010


Station Type Date Time Source
KOLF Decoded METAR 2019/08/24 17:53 UTC NOAA

Station name not available
Aug 24, 2019 - 01:53 PM EDT / 2019.08.24 1753 UTC
Wind: from the WSW (250 degrees) at 12 MPH (10 KT):0
Visibility: 10 mile(s):0
Sky conditions: clear
Temperature: 82.9 F (28.3 C)
Dew Point: 61.0 F (16.1 C)
Relative Humidity: 47%
Pressure (altimeter): 29.76 in. Hg (1007 hPa)
Pressure tendency: 0.03 inches (1.0 hPa) lower than three hours ago
ob: KOLF 241753Z AUTO 25010KT 10SM CLR 28/16 A2976 RMK AO2 SLP066 T02830161 10283 20167 56010
cycle: 18

Station Type Date Time Source
KOLF TAF 2019/08/24 18:30 UTC NOAA

TAF KOLF 241727Z 2418/2518 22007KT P6SM SCT150
FM242300 26009KT P6SM BKN120
FM251700 28013KT P6SM SCT100

Example: see airport list